Time;durP1;ratioP1;P1;durP2;ratioP2;P2;SDS_P1;SDS_P2;PMS_P1;PMS_P2;Temp;Humidity;BMP_temperature;BMP_pressure;BME280_temperature;BME280_humidity;BME280_pressure;Samples;Min_cycle;Max_cycle;Signal;HPM_P1;HPM_P2
2023/05/02 00:00:47;;;;;;;;;;;11.20;99.90;;;;;;5092118;28;20613;-74
2023/05/02 00:03:12;;;;;;;;;;;11.20;99.90;;;;;;5091042;28;19934;-74
2023/05/02 00:05:39;;;;;;;;;;;11.20;99.90;;;;;;5091186;28;19924;-73
2023/05/02 00:08:05;;;;;;;;;;;11.20;99.90;;;;;;5092632;28;19924;-74
2023/05/02 00:10:30;;;;;;;;;;;11.20;99.90;;;;;;5091470;28;19931;-73
2023/05/02 00:12:56;;;;;;;;;;;11.20;99.90;;;;;;5090681;28;20398;-73
2023/05/02 00:15:21;;;;;;;;;;;11.20;99.90;;;;;;5090058;28;19924;-73
2023/05/02 00:17:47;;;;;;;;;;;11.20;99.90;;;;;;5092237;28;19924;-74
2023/05/02 00:20:12;;;;;;;;;;;11.20;99.90;;;;;;5091991;28;20394;-73
2023/05/02 00:22:38;;;;;;;;;;;11.20;99.90;;;;;;5090343;28;19950;-73
2023/05/02 00:25:04;;;;;;;;;;;11.10;99.90;;;;;;5094795;28;19930;-74
2023/05/02 00:27:30;;;;;;;;;;;11.10;99.90;;;;;;5094676;28;19973;-73
2023/05/02 00:29:58;;;;;;;;;;;11.20;99.90;;;;;;5096384;28;19923;-73
2023/05/02 00:32:23;;;;;;;;;;;11.10;99.90;;;;;;5095022;28;20419;-73
2023/05/02 00:34:49;;;;;;;;;;;11.20;99.90;;;;;;5095963;28;19978;-73
2023/05/02 00:37:15;;;;;;;;;;;11.20;99.90;;;;;;5093498;28;19950;-72
2023/05/02 00:39:41;;;;;;;;;;;11.10;99.90;;;;;;5093144;28;19924;-73
2023/05/02 00:42:06;;;;;;;;;;;11.10;99.90;;;;;;5091355;28;19924;-73
2023/05/02 00:44:32;;;;;;;;;;;11.10;99.90;;;;;;5090975;28;19932;-73
2023/05/02 00:46:57;;;;;;;;;;;11.10;99.90;;;;;;5091569;28;20464;-73
2023/05/02 00:49:23;;;;;;;;;;;11.10;99.90;;;;;;5089482;28;19934;-73
2023/05/02 00:51:49;;;;;;;;;;;11.10;99.90;;;;;;5090110;28;19924;-73
2023/05/02 00:54:14;;;;;;;;;;;11.10;99.90;;;;;;5093304;28;20006;-73
2023/05/02 00:56:40;;;;;;;;;;;11.00;99.90;;;;;;5091880;28;19931;-73
2023/05/02 00:59:06;;;;;;;;;;;11.00;99.90;;;;;;5089849;28;19949;-73
2023/05/02 01:01:35;;;;;;;;;;;10.90;99.90;;;;;;5090022;28;19924;-73
2023/05/02 01:04:02;;;;;;;;;;;10.90;99.90;;;;;;5090663;28;19981;-73
2023/05/02 01:06:34;;;;;;;;;;;10.80;99.90;;;;;;5090493;28;19928;-73
2023/05/02 01:09:18;;;;;;;;;;;10.70;99.90;;;;;;5094385;28;20023;-73
2023/05/02 01:12:16;;;;;;;;;;;10.60;99.90;;;;;;5091965;28;19931;-73
2023/05/02 01:14:42;;;;;;;;;;;10.50;99.90;;;;;;5010714;28;20318;-73
2023/05/02 01:17:13;;;;;;;;;;;10.40;99.90;;;;;;5092861;28;19970;-73
2023/05/02 01:19:49;;;;;;;;;;;10.40;99.90;;;;;;5091718;28;19971;-73
2023/05/02 01:22:15;;;;;;;;;;;10.30;99.90;;;;;;5091003;28;19931;-73
2023/05/02 01:24:47;;;;;;;;;;;10.30;99.90;;;;;;5089865;28;19928;-73
2023/05/02 01:27:31;;;;;;;;;;;10.20;99.90;;;;;;5089066;28;19931;-73
2023/05/02 01:29:57;;;;;;;;;;;10.10;99.90;;;;;;5093963;28;20369;-73
2023/05/02 01:32:23;;;;;;;;;;;10.00;99.90;;;;;;5092846;28;20359;-73
2023/05/02 01:34:51;;;;;;;;;;;10.00;99.90;;;;;;5096002;28;19977;-73
2023/05/02 01:37:17;;;;;;;;;;;9.90;99.90;;;;;;5092501;28;19928;-73
2023/05/02 01:39:43;;;;;;;;;;;9.90;99.90;;;;;;5089904;28;19959;-73
2023/05/02 01:42:09;;;;;;;;;;;9.90;99.90;;;;;;5089451;28;19971;-74
2023/05/02 01:44:35;;;;;;;;;;;9.90;99.90;;;;;;5090299;28;19928;-73
2023/05/02 01:47:02;;;;;;;;;;;9.90;99.90;;;;;;5092239;28;19923;-73
2023/05/02 01:49:28;;;;;;;;;;;9.80;99.90;;;;;;5092559;28;19934;-73
2023/05/02 01:51:54;;;;;;;;;;;9.80;99.90;;;;;;5091115;28;19924;-73
2023/05/02 01:54:21;;;;;;;;;;;9.80;99.90;;;;;;5090220;28;19940;-73
2023/05/02 01:56:48;;;;;;;;;;;9.70;99.90;;;;;;5092388;28;19948;-73
2023/05/02 01:59:15;;;;;;;;;;;9.70;99.90;;;;;;5091091;28;20404;-73
2023/05/02 02:01:42;;;;;;;;;;;9.70;99.90;;;;;;5088647;28;19932;-73
2023/05/02 02:04:09;;;;;;;;;;;9.70;99.90;;;;;;5088632;28;19969;-73
2023/05/02 02:06:34;;;;;;;;;;;9.70;99.90;;;;;;5083791;28;19974;-73
2023/05/02 02:09:00;;;;;;;;;;;9.70;99.90;;;;;;5094204;28;20339;-73
2023/05/02 02:11:33;;;;;;;;;;;9.70;99.90;;;;;;5090424;28;19924;-73
2023/05/02 02:14:10;;;;;;;;;;;9.60;99.90;;;;;;5087911;28;19935;-72
2023/05/02 02:16:37;;;;;;;;;;;9.60;99.90;;;;;;5089575;28;19928;-73
2023/05/02 02:19:07;;;;;;;;;;;9.50;99.90;;;;;;5088704;28;20406;-73
2023/05/02 02:21:33;;;;;;;;;;;9.50;99.90;;;;;;5087262;28;20730;-73
2023/05/02 02:24:00;;;;;;;;;;;9.50;99.90;;;;;;5089831;28;19924;-73
2023/05/02 02:26:26;;;;;;;;;;;9.50;99.90;;;;;;5072810;28;19928;-73
2023/05/02 02:28:51;;;;;;;;;;;9.40;99.90;;;;;;5090188;28;19924;-73
2023/05/02 02:31:17;;;;;;;;;;;9.40;99.90;;;;;;5088608;28;19925;-73
2023/05/02 02:33:43;;;;;;;;;;;9.30;99.90;;;;;;5089399;28;19976;-73
2023/05/02 02:36:16;;;;;;;;;;;9.30;99.90;;;;;;5090681;28;19975;-73
2023/05/02 02:38:45;;;;;;;;;;;9.30;99.90;;;;;;5089132;28;19932;-73
2023/05/02 02:41:10;;;;;;;;;;;9.30;99.90;;;;;;5091883;28;19935;-73
2023/05/02 02:43:43;;;;;;;;;;;9.20;99.90;;;;;;5089577;28;19924;-73
2023/05/02 02:46:08;;;;;;;;;;;9.20;99.90;;;;;;5088200;28;19924;-73
2023/05/02 02:48:54;;;;;;;;;;;9.20;99.90;;;;;;5089991;28;19931;-73
2023/05/02 02:51:31;;;;;;;;;;;9.20;99.90;;;;;;5060998;28;19930;-73
2023/05/02 02:54:01;;;;;;;;;;;9.20;99.90;;;;;;5089958;28;19924;-73
2023/05/02 02:56:39;;;;;;;;;;;9.20;99.90;;;;;;5091964;28;20405;-73
2023/05/02 02:59:14;;;;;;;;;;;9.20;99.90;;;;;;5087407;28;19924;-73
2023/05/02 03:01:42;;;;;;;;;;;9.20;99.90;;;;;;5091340;28;19935;-73
2023/05/02 03:04:09;;;;;;;;;;;9.10;99.90;;;;;;5091522;28;19946;-73
2023/05/02 03:06:35;;;;;;;;;;;9.10;99.90;;;;;;5094098;28;20340;-73
2023/05/02 03:09:01;;;;;;;;;;;9.10;99.90;;;;;;5088810;28;19924;-73
2023/05/02 03:11:26;;;;;;;;;;;9.00;99.90;;;;;;5093344;28;19932;-73
2023/05/02 03:13:52;;;;;;;;;;;9.00;99.90;;;;;;5074793;28;19924;-73
2023/05/02 03:16:32;;;;;;;;;;;9.00;99.90;;;;;;5091850;28;20018;-73
2023/05/02 03:18:58;;;;;;;;;;;8.90;99.90;;;;;;5079847;28;20410;-73
2023/05/02 03:21:24;;;;;;;;;;;8.90;99.90;;;;;;5090722;28;19973;-73
2023/05/02 03:23:49;;;;;;;;;;;8.90;99.90;;;;;;5088166;28;19924;-73
2023/05/02 03:26:15;;;;;;;;;;;8.90;99.90;;;;;;5087578;28;20015;-73
2023/05/02 03:28:41;;;;;;;;;;;8.90;99.90;;;;;;5087727;28;19924;-73
2023/05/02 03:31:06;;;;;;;;;;;8.90;99.90;;;;;;5092455;28;19924;-73
2023/05/02 03:33:32;;;;;;;;;;;8.90;99.90;;;;;;5094595;28;19931;-73
2023/05/02 03:35:58;;;;;;;;;;;8.80;99.90;;;;;;5092783;28;19934;-73
2023/05/02 03:38:23;;;;;;;;;;;8.80;99.90;;;;;;5091700;28;20014;-73
2023/05/02 03:40:49;;;;;;;;;;;8.80;99.90;;;;;;5090740;28;20007;-73
2023/05/02 03:43:14;;;;;;;;;;;8.70;99.90;;;;;;5092575;28;20412;-73
2023/05/02 03:45:40;;;;;;;;;;;8.70;99.90;;;;;;5074537;28;19924;-73
2023/05/02 03:48:05;;;;;;;;;;;8.70;99.90;;;;;;5091284;28;20017;-73
2023/05/02 03:50:31;;;;;;;;;;;8.70;99.90;;;;;;5090697;28;19927;-73
2023/05/02 03:52:56;;;;;;;;;;;8.70;99.90;;;;;;5090787;28;20314;-73
2023/05/02 03:55:22;;;;;;;;;;;8.70;99.90;;;;;;5091669;28;20009;-73
2023/05/02 03:57:47;;;;;;;;;;;8.60;99.90;;;;;;5091531;28;19931;-73
2023/05/02 04:00:13;;;;;;;;;;;8.60;99.90;;;;;;5091521;28;19932;-74
2023/05/02 04:02:39;;;;;;;;;;;8.60;99.90;;;;;;5092467;28;19931;-73
2023/05/02 04:05:04;;;;;;;;;;;8.60;99.90;;;;;;5092331;28;19939;-73
2023/05/02 04:07:30;;;;;;;;;;;8.60;99.90;;;;;;5092208;28;19924;-73
2023/05/02 04:09:55;;;;;;;;;;;8.60;99.90;;;;;;5092312;28;20278;-73
2023/05/02 04:12:21;;;;;;;;;;;8.60;99.90;;;;;;5091802;28;19935;-73
2023/05/02 04:14:46;;;;;;;;;;;8.50;99.90;;;;;;5094468;28;19924;-73
2023/05/02 04:17:12;;;;;;;;;;;8.60;99.90;;;;;;5091354;28;19945;-73
2023/05/02 04:19:38;;;;;;;;;;;8.60;99.90;;;;;;5093859;28;19925;-73
2023/05/02 04:22:03;;;;;;;;;;;8.50;99.90;;;;;;5089629;28;20298;-73
2023/05/02 04:24:29;;;;;;;;;;;8.50;99.90;;;;;;5089959;28;19924;-73
2023/05/02 04:26:54;;;;;;;;;;;8.50;99.90;;;;;;5091816;28;20052;-73
2023/05/02 04:29:20;;;;;;;;;;;8.50;99.90;;;;;;5075407;28;19924;-73
2023/05/02 04:31:45;;;;;;;;;;;8.60;99.90;;;;;;5090507;28;19924;-73
2023/05/02 04:34:11;;;;;;;;;;;8.50;99.90;;;;;;5093961;28;19970;-73
2023/05/02 04:36:37;;;;;;;;;;;8.50;99.90;;;;;;5091757;28;19971;-72
2023/05/02 04:39:06;;;;;;;;;;;8.60;99.90;;;;;;5074617;28;19938;-73
2023/05/02 04:41:32;;;;;;;;;;;8.50;99.90;;;;;;5090681;28;19976;-73
2023/05/02 04:43:57;;;;;;;;;;;8.50;99.90;;;;;;5093139;28;20703;-72
2023/05/02 04:46:23;;;;;;;;;;;8.50;99.90;;;;;;5091820;28;19927;-72
2023/05/02 04:48:48;;;;;;;;;;;8.50;99.90;;;;;;5091749;28;20006;-72
2023/05/02 04:51:14;;;;;;;;;;;8.50;99.90;;;;;;5091041;28;20012;-72
2023/05/02 04:53:39;;;;;;;;;;;8.50;99.90;;;;;;5091234;28;19933;-72
2023/05/02 04:56:05;;;;;;;;;;;8.50;99.90;;;;;;5090321;28;19970;-72
2023/05/02 04:58:31;;;;;;;;;;;8.40;99.90;;;;;;5093316;28;19932;-72
2023/05/02 05:00:57;;;;;;;;;;;8.40;99.90;;;;;;5097215;28;19931;-72
2023/05/02 05:03:22;;;;;;;;;;;8.40;99.90;;;;;;5089754;28;19939;-72
2023/05/02 05:05:48;;;;;;;;;;;8.40;99.90;;;;;;5094926;28;20767;-72
2023/05/02 05:08:13;;;;;;;;;;;8.30;99.90;;;;;;5079952;28;19932;-72
2023/05/02 05:10:39;;;;;;;;;;;8.30;99.90;;;;;;5096949;28;20049;-72
2023/05/02 05:13:05;;;;;;;;;;;8.30;99.90;;;;;;5097177;28;20392;-72
2023/05/02 05:15:30;;;;;;;;;;;8.30;99.90;;;;;;5077195;28;20006;-72
2023/05/02 05:17:56;;;;;;;;;;;8.30;99.90;;;;;;5091434;28;19924;-72
2023/05/02 05:20:21;;;;;;;;;;;8.30;99.90;;;;;;5091444;28;19924;-73
2023/05/02 05:22:47;;;;;;;;;;;8.30;99.90;;;;;;5091580;28;19930;-73
2023/05/02 05:25:12;;;;;;;;;;;8.30;99.90;;;;;;5089784;28;20410;-70
2023/05/02 05:27:38;;;;;;;;;;;8.30;99.90;;;;;;5091766;28;19930;-71
2023/05/02 05:30:05;;;;;;;;;;;8.30;99.90;;;;;;5074959;28;20014;-72
2023/05/02 05:32:32;;;;;;;;;;;8.30;99.90;;;;;;5089034;28;20467;-71
2023/05/02 05:34:58;;;;;;;;;;;8.40;99.90;;;;;;5093050;28;20313;-72
2023/05/02 05:37:23;;;;;;;;;;;8.40;99.90;;;;;;5074381;28;19928;-72
2023/05/02 05:39:49;;;;;;;;;;;8.40;99.90;;;;;;5089740;28;19928;-72
2023/05/02 05:42:14;;;;;;;;;;;8.40;99.90;;;;;;5090397;28;19928;-72
2023/05/02 05:44:40;;;;;;;;;;;8.50;99.90;;;;;;5089636;28;19981;-72
2023/05/02 05:47:05;;;;;;;;;;;8.50;99.90;;;;;;5072297;28;19924;-72
2023/05/02 05:49:31;;;;;;;;;;;8.60;99.90;;;;;;5088765;28;19939;-72
2023/05/02 05:52:00;;;;;;;;;;;8.60;99.90;;;;;;5089871;28;19924;-72
2023/05/02 05:54:25;;;;;;;;;;;8.60;99.90;;;;;;5071356;28;19924;-72
2023/05/02 05:56:51;;;;;;;;;;;8.60;99.90;;;;;;5090306;28;19931;-72
2023/05/02 05:59:16;;;;;;;;;;;8.70;99.90;;;;;;5093397;28;19935;-72
2023/05/02 06:01:42;;;;;;;;;;;8.70;99.90;;;;;;5089268;28;20305;-72
2023/05/02 06:04:07;;;;;;;;;;;8.70;99.90;;;;;;5072193;28;19935;-72
2023/05/02 06:06:33;;;;;;;;;;;8.70;99.90;;;;;;5087974;28;19939;-72
2023/05/02 06:08:59;;;;;;;;;;;8.80;99.90;;;;;;5088678;28;19924;-72
2023/05/02 06:11:25;;;;;;;;;;;8.80;99.90;;;;;;5089815;28;19931;-72
2023/05/02 06:13:51;;;;;;;;;;;8.90;99.90;;;;;;5073793;28;19935;-72
2023/05/02 06:16:17;;;;;;;;;;;8.90;99.90;;;;;;5090549;28;20390;-72
2023/05/02 06:18:42;;;;;;;;;;;8.90;99.90;;;;;;5089966;28;20584;-72
2023/05/02 06:21:08;;;;;;;;;;;9.00;99.90;;;;;;5089062;28;19924;-72
2023/05/02 06:23:34;;;;;;;;;;;9.00;99.90;;;;;;5090271;28;19931;-72
2023/05/02 06:26:00;;;;;;;;;;;9.10;99.90;;;;;;5090711;28;19993;-72
2023/05/02 06:28:26;;;;;;;;;;;9.10;99.90;;;;;;5088896;28;19947;-72
2023/05/02 06:30:57;;;;;;;;;;;9.10;99.90;;;;;;5088990;28;20378;-72
2023/05/02 06:33:23;;;;;;;;;;;9.20;99.90;;;;;;5088894;28;20953;-72
2023/05/02 06:35:55;;;;;;;;;;;9.20;99.90;;;;;;5073254;28;19984;-72
2023/05/02 06:38:20;;;;;;;;;;;9.20;99.90;;;;;;5090546;28;20349;-72
2023/05/02 06:40:46;;;;;;;;;;;9.30;99.90;;;;;;5092334;28;19924;-72
2023/05/02 06:43:12;;;;;;;;;;;9.30;99.90;;;;;;5089479;28;20018;-72
2023/05/02 06:45:38;;;;;;;;;;;9.30;99.90;;;;;;5074615;28;19928;-72
2023/05/02 06:48:03;;;;;;;;;;;9.30;99.90;;;;;;5089245;28;19935;-72
2023/05/02 06:50:29;;;;;;;;;;;9.30;99.90;;;;;;5091276;28;19931;-72
2023/05/02 06:52:54;;;;;;;;;;;9.40;99.90;;;;;;5090130;28;19924;-72
2023/05/02 06:55:20;;;;;;;;;;;9.40;99.90;;;;;;5090677;28;20335;-72
2023/05/02 06:57:47;;;;;;;;;;;9.40;99.90;;;;;;5089387;28;19967;-72
2023/05/02 07:00:13;;;;;;;;;;;9.30;99.90;;;;;;5089880;28;19928;-72
2023/05/02 07:02:39;;;;;;;;;;;9.30;99.90;;;;;;5088817;28;19925;-72
2023/05/02 07:05:05;;;;;;;;;;;9.40;99.90;;;;;;5091617;28;20342;-72
2023/05/02 07:07:31;;;;;;;;;;;9.40;99.90;;;;;;5094113;28;19928;-72
2023/05/02 07:09:56;;;;;;;;;;;9.40;99.90;;;;;;5093634;28;19980;-72
2023/05/02 07:12:22;;;;;;;;;;;9.50;99.90;;;;;;5092588;28;20015;-72
2023/05/02 07:14:47;;;;;;;;;;;9.50;99.90;;;;;;5093683;28;19931;-73
2023/05/02 07:17:14;;;;;;;;;;;9.60;99.90;;;;;;5092799;28;19935;-72
2023/05/02 07:19:40;;;;;;;;;;;9.60;99.90;;;;;;5077097;28;19928;-72
2023/05/02 07:22:06;;;;;;;;;;;9.70;99.90;;;;;;5092224;28;19932;-73
2023/05/02 07:24:31;;;;;;;;;;;9.70;99.90;;;;;;5091435;28;19928;-72
2023/05/02 07:26:57;;;;;;;;;;;9.80;99.90;;;;;;5092626;28;20420;-72
2023/05/02 07:29:22;;;;;;;;;;;9.80;99.90;;;;;;5091847;28;19928;-72
2023/05/02 07:31:48;;;;;;;;;;;9.80;99.90;;;;;;5091468;28;19963;-73
2023/05/02 07:34:14;;;;;;;;;;;9.80;99.90;;;;;;5092017;28;20012;-72
2023/05/02 07:36:39;;;;;;;;;;;9.90;99.90;;;;;;5095057;28;20322;-72
2023/05/02 07:39:05;;;;;;;;;;;9.90;99.90;;;;;;5092951;28;20392;-72
2023/05/02 07:41:30;;;;;;;;;;;10.00;99.90;;;;;;5075355;28;19931;-72
2023/05/02 07:43:56;;;;;;;;;;;10.10;99.90;;;;;;5091688;28;20252;-75
2023/05/02 07:46:22;;;;;;;;;;;10.20;99.90;;;;;;5073260;28;20390;-72
2023/05/02 07:48:48;;;;;;;;;;;10.30;99.90;;;;;;5090905;28;19924;-73
2023/05/02 07:51:14;;;;;;;;;;;10.30;99.90;;;;;;5091082;28;19931;-73
2023/05/02 07:53:39;;;;;;;;;;;10.30;99.90;;;;;;5090133;28;19928;-72
2023/05/02 07:56:07;;;;;;;;;;;10.40;99.90;;;;;;5093889;28;20487;-73
2023/05/02 07:58:33;;;;;;;;;;;10.40;99.90;;;;;;5093492;28;19978;-72
2023/05/02 08:00:59;;;;;;;;;;;10.40;99.90;;;;;;5092449;28;19924;-72
2023/05/02 08:03:25;;;;;;;;;;;10.50;99.90;;;;;;5096394;28;19942;-73
2023/05/02 08:05:51;;;;;;;;;;;10.60;99.90;;;;;;5074612;28;19979;-73
2023/05/02 08:08:16;;;;;;;;;;;10.60;99.90;;;;;;5097802;28;19935;-73
2023/05/02 08:10:42;;;;;;;;;;;10.70;99.90;;;;;;5098215;28;19924;-73
2023/05/02 08:13:07;;;;;;;;;;;10.80;99.90;;;;;;5097358;28;20038;-73
2023/05/02 08:15:33;;;;;;;;;;;10.80;99.90;;;;;;5095195;28;19930;-73
2023/05/02 08:17:58;;;;;;;;;;;10.80;99.90;;;;;;5091593;28;19924;-72
2023/05/02 08:20:24;;;;;;;;;;;10.80;99.90;;;;;;5091045;28;19950;-72
2023/05/02 08:22:50;;;;;;;;;;;10.90;99.90;;;;;;5089488;28;19924;-72
2023/05/02 08:25:15;;;;;;;;;;;11.00;99.90;;;;;;5089522;28;19930;-72
2023/05/02 08:27:41;;;;;;;;;;;11.10;99.90;;;;;;5089918;28;20007;-73
2023/05/02 08:30:07;;;;;;;;;;;11.10;99.90;;;;;;5091332;28;19924;-75
2023/05/02 08:32:32;;;;;;;;;;;11.00;99.90;;;;;;5088064;28;19928;-73
2023/05/02 08:34:58;;;;;;;;;;;10.90;99.90;;;;;;5089633;28;19931;-72
2023/05/02 08:37:24;;;;;;;;;;;10.90;99.90;;;;;;5091691;28;19928;-72
2023/05/02 08:39:50;;;;;;;;;;;11.00;99.90;;;;;;5090375;28;19928;-73
2023/05/02 08:42:15;;;;;;;;;;;11.10;99.90;;;;;;5092759;28;19931;-73
2023/05/02 08:44:41;;;;;;;;;;;11.20;99.90;;;;;;5090238;28;20020;-75
2023/05/02 08:47:09;;;;;;;;;;;11.30;99.90;;;;;;5091586;28;19931;-73
2023/05/02 08:49:35;;;;;;;;;;;11.40;99.90;;;;;;5090175;28;19931;-73
2023/05/02 08:52:01;;;;;;;;;;;11.40;99.90;;;;;;5091073;28;19942;-73
2023/05/02 08:54:27;;;;;;;;;;;11.40;99.90;;;;;;5079454;28;19924;-75
2023/05/02 08:56:53;;;;;;;;;;;11.30;99.90;;;;;;5091919;28;20402;-72
2023/05/02 08:59:19;;;;;;;;;;;11.20;99.90;;;;;;5090734;28;19969;-73
2023/05/02 09:01:47;;;;;;;;;;;11.10;99.90;;;;;;5090745;28;20393;-72
2023/05/02 09:04:13;;;;;;;;;;;11.00;99.90;;;;;;5078001;28;20014;-73
2023/05/02 09:06:39;;;;;;;;;;;11.10;99.90;;;;;;5090429;28;20027;-73
2023/05/02 09:09:05;;;;;;;;;;;11.20;99.90;;;;;;5088765;28;19924;-72
2023/05/02 09:11:31;;;;;;;;;;;11.40;99.90;;;;;;5089798;28;19966;-73
2023/05/02 09:14:02;;;;;;;;;;;11.50;99.90;;;;;;5089589;28;19966;-72
2023/05/02 09:16:28;;;;;;;;;;;11.60;99.90;;;;;;5090329;28;19935;-73
2023/05/02 09:18:54;;;;;;;;;;;11.60;99.90;;;;;;5091821;28;19924;-73
2023/05/02 09:21:21;;;;;;;;;;;11.70;99.90;;;;;;5090654;28;20413;-73
2023/05/02 09:23:50;;;;;;;;;;;11.70;99.90;;;;;;5091608;28;19924;-72
2023/05/02 09:26:20;;;;;;;;;;;11.60;99.90;;;;;;5073183;28;20007;-73
2023/05/02 09:28:50;;;;;;;;;;;11.50;99.90;;;;;;5089303;28;19924;-73
2023/05/02 09:31:19;;;;;;;;;;;11.40;99.90;;;;;;5088946;28;19924;-73
2023/05/02 09:33:44;;;;;;;;;;;11.30;99.90;;;;;;5091716;28;19931;-73
2023/05/02 09:36:14;;;;;;;;;;;11.30;99.90;;;;;;5093438;28;20045;-73
2023/05/02 09:38:40;;;;;;;;;;;11.30;99.90;;;;;;5091638;28;19924;-72
2023/05/02 09:41:06;;;;;;;;;;;11.20;99.90;;;;;;5093507;28;19930;-73
2023/05/02 09:43:32;;;;;;;;;;;11.30;99.90;;;;;;5089367;28;19924;-73
2023/05/02 09:45:58;;;;;;;;;;;11.30;99.90;;;;;;5096747;28;20302;-73
2023/05/02 09:48:25;;;;;;;;;;;11.30;99.90;;;;;;5093660;28;19935;-73
2023/05/02 09:50:51;;;;;;;;;;;11.30;99.90;;;;;;5097378;28;20378;-73
2023/05/02 09:53:16;;;;;;;;;;;11.40;99.90;;;;;;5093311;28;20030;-73
2023/05/02 09:55:42;;;;;;;;;;;11.60;99.90;;;;;;5087265;28;19927;-72
2023/05/02 09:58:19;;;;;;;;;;;11.70;99.90;;;;;;5089211;28;19967;-73
2023/05/02 10:00:44;;;;;;;;;;;11.90;99.90;;;;;;5087441;28;19923;-73
2023/05/02 10:03:10;;;;;;;;;;;12.30;99.90;;;;;;5088576;28;20400;-73
2023/05/02 10:05:37;;;;;;;;;;;12.50;99.90;;;;;;5089030;28;19950;-73
2023/05/02 10:08:07;;;;;;;;;;;12.70;99.90;;;;;;5087910;28;19927;-73
2023/05/02 10:10:36;;;;;;;;;;;13.00;99.90;;;;;;5088501;28;20049;-73
2023/05/02 10:13:02;;;;;;;;;;;13.10;99.90;;;;;;5088847;28;19946;-73
2023/05/02 10:15:30;;;;;;;;;;;13.20;99.90;;;;;;5072987;28;20051;-73
2023/05/02 10:17:57;;;;;;;;;;;13.20;99.90;;;;;;5092915;28;19924;-73
2023/05/02 10:20:25;;;;;;;;;;;13.00;99.90;;;;;;5089845;28;20048;-73
2023/05/02 10:22:51;;;;;;;;;;;12.80;99.90;;;;;;5093686;28;19928;-73
2023/05/02 10:25:17;;;;;;;;;;;12.60;99.90;;;;;;5090393;28;20637;-73
2023/05/02 10:27:43;;;;;;;;;;;12.40;99.90;;;;;;5092156;28;19924;-73
2023/05/02 10:30:09;;;;;;;;;;;12.70;99.90;;;;;;5072254;28;19924;-73
2023/05/02 10:32:35;;;;;;;;;;;13.20;99.90;;;;;;5087739;28;19963;-73
2023/05/02 10:35:04;;;;;;;;;;;13.60;99.90;;;;;;5088552;28;19977;-73
2023/05/02 10:37:32;;;;;;;;;;;14.20;99.90;;;;;;5089123;28;19934;-73
2023/05/02 10:39:58;;;;;;;;;;;14.50;98.40;;;;;;5076248;28;20026;-73
2023/05/02 10:42:24;;;;;;;;;;;15.00;98.60;;;;;;5074945;28;20074;-73
2023/05/02 10:44:50;;;;;;;;;;;15.00;94.70;;;;;;5093587;28;19928;-73
2023/05/02 10:47:20;;;;;;;;;;;14.60;93.80;;;;;;5093220;28;19924;-73
2023/05/02 10:49:53;;;;;;;;;;;14.20;94.90;;;;;;5093078;28;19928;-73
2023/05/02 10:52:28;;;;;;;;;;;13.90;95.00;;;;;;5096378;28;19928;-73
2023/05/02 10:55:12;;;;;;;;;;;14.10;95.60;;;;;;5096321;28;19977;-73
2023/05/02 10:58:11;;;;;;;;;;;14.60;96.20;;;;;;5096019;28;19924;-73
2023/05/02 11:00:37;;;;;;;;;;;15.00;93.90;;;;;;5038094;28;20046;-73
2023/05/02 11:03:02;;;;;;;;;;;15.60;94.00;;;;;;5091926;28;20512;-73
2023/05/02 11:05:28;;;;;;;;;;;16.10;94.10;;;;;;5079900;28;19931;-73
2023/05/02 11:08:12;;;;;;;;;;;16.40;94.10;;;;;;5096422;28;19928;-73
2023/05/02 11:10:37;;;;;;;;;;;16.60;92.90;;;;;;5095718;28;19984;-73
2023/05/02 11:13:03;;;;;;;;;;;16.50;91.70;;;;;;5096902;28;20332;-73
2023/05/02 11:15:28;;;;;;;;;;;16.10;91.50;;;;;;5093403;28;19924;-73
2023/05/02 11:17:57;;;;;;;;;;;15.80;92.40;;;;;;5093614;28;20324;-73
2023/05/02 11:20:23;;;;;;;;;;;15.40;91.20;;;;;;5091489;28;20353;-73
2023/05/02 11:22:48;;;;;;;;;;;15.10;92.30;;;;;;5091537;28;20053;-73
2023/05/02 11:25:30;;;;;;;;;;;14.90;92.60;;;;;;5094377;28;19970;-73
2023/05/02 11:27:56;;;;;;;;;;;14.60;92.70;;;;;;5091821;28;19930;-73
2023/05/02 11:30:38;;;;;;;;;;;14.30;94.20;;;;;;5092511;28;20306;-73
2023/05/02 11:33:04;;;;;;;;;;;14.10;94.20;;;;;;5092421;28;19924;-73
2023/05/02 11:35:30;;;;;;;;;;;13.80;94.20;;;;;;5094580;28;20056;-73
2023/05/02 11:38:03;;;;;;;;;;;13.70;94.60;;;;;;5090342;28;20006;-73
2023/05/02 11:40:29;;;;;;;;;;;13.90;94.40;;;;;;5092279;28;20324;-73
2023/05/02 11:42:56;;;;;;;;;;;14.40;94.70;;;;;;5089669;28;19924;-73
2023/05/02 11:45:31;;;;;;;;;;;14.50;95.20;;;;;;5090955;28;19928;-73
2023/05/02 11:47:56;;;;;;;;;;;14.50;93.50;;;;;;5092423;28;19924;-73
2023/05/02 11:50:22;;;;;;;;;;;14.40;93.50;;;;;;5091568;28;19931;-73
2023/05/02 11:52:48;;;;;;;;;;;14.50;92.50;;;;;;5091286;28;20274;-73
2023/05/02 11:55:14;;;;;;;;;;;14.60;91.60;;;;;;5090195;28;20011;-73
2023/05/02 11:57:39;;;;;;;11.23;0.90;;;15.00;91.60;;;;;;5075683;28;19924;-73
2023/05/02 12:00:12;;;;;;;2.93;0.50;;;15.50;91.70;;;;;;5089019;28;20398;-73
2023/05/02 12:02:43;;;;;;;4.07;0.30;;;15.90;90.80;;;;;;5089294;28;20441;-75
2023/05/02 12:05:13;;;;;;;3.08;0.70;;;15.80;89.20;;;;;;5092550;28;20485;-73
2023/05/02 12:07:44;;;;;;;3.72;0.30;;;15.70;88.00;;;;;;5093837;28;20400;-73
2023/05/02 12:10:11;;;;;;;3.22;0.32;;;15.90;90.40;;;;;;5091994;28;20458;-73
2023/05/02 12:12:38;;;;;;;3.07;0.50;;;16.20;89.00;;;;;;5089033;28;20401;-73
2023/05/02 12:15:09;;;;;;;4.60;0.50;;;16.40;87.70;;;;;;5088663;28;20409;-73
2023/05/02 12:17:47;;;;;;;3.88;0.50;;;16.70;88.30;;;;;;5090351;28;20989;-73
2023/05/02 12:20:14;;;;;;;2.03;0.40;;;16.80;83.90;;;;;;5087749;28;20405;-73
2023/05/02 12:22:40;;;;;;;2.58;0.30;;;16.60;85.20;;;;;;5091000;28;20426;-73
2023/05/02 12:25:06;;;;;;;3.63;0.50;;;16.50;86.40;;;;;;5089716;28;20463;-73
2023/05/02 12:27:33;;;;;;;4.57;0.47;;;16.40;86.50;;;;;;5090994;28;20939;-73
2023/05/02 12:29:59;;;;;;;3.80;0.40;;;16.70;88.30;;;;;;5090301;28;20418;-73
2023/05/02 12:32:30;;;;;;;2.97;0.30;;;17.00;86.40;;;;;;5090693;28;21501;-74
2023/05/02 12:34:57;;;;;;;3.03;0.50;;;17.10;84.10;;;;;;5090713;28;20989;-73
2023/05/02 12:37:24;;;;;;;2.97;0.28;;;17.20;81.70;;;;;;5088950;28;20539;-73
2023/05/02 12:39:50;;;;;;;2.80;0.40;;;17.20;81.60;;;;;;5088442;28;21485;-73
2023/05/02 12:42:18;;;;;;;1.53;0.23;;;17.20;81.40;;;;;;5089820;28;21190;-73
2023/05/02 12:44:45;;;;;;;4.45;0.40;;;16.90;81.80;;;;;;5092089;28;20406;-73
2023/05/02 12:47:15;;;;;;;5.05;0.50;;;17.00;83.40;;;;;;5090220;28;20900;-73
2023/05/02 12:49:51;;;;;;;4.82;0.60;;;16.80;80.80;;;;;;5087783;28;20428;-73
2023/05/02 12:52:21;;;;;;;3.50;0.40;;;16.30;84.10;;;;;;5086378;28;20416;-73
2023/05/02 12:54:47;;;;;;;3.40;0.50;;;15.80;84.40;;;;;;5092420;28;20472;-73
2023/05/02 12:57:25;;;;;;;4.53;0.70;;;15.70;86.70;;;;;;5087215;28;20394;-73
2023/05/02 12:59:53;;;;;;;4.53;0.38;;;15.50;85.90;;;;;;5090879;28;20417;-73
2023/05/02 13:02:19;;;;;;;3.17;0.30;;;15.40;85.90;;;;;;5086331;28;20422;-73
2023/05/02 13:04:45;;;;;;;3.60;0.40;;;15.40;86.50;;;;;;5092616;28;20433;-73
2023/05/02 13:07:11;;;;;;;4.38;0.40;;;15.40;87.00;;;;;;5084002;28;20442;-73
2023/05/02 13:09:36;;;;;;;3.38;0.70;;;15.60;87.30;;;;;;5090212;28;20398;-73
2023/05/02 13:12:02;;;;;;;3.87;0.30;;;15.60;86.30;;;;;;5083418;28;20684;-73
2023/05/02 13:14:28;;;;;;;2.67;0.30;;;15.50;87.10;;;;;;5087064;28;20410;-74
2023/05/02 13:16:54;;;;;;;2.63;0.33;;;15.40;88.10;;;;;;5090659;28;20397;-73
2023/05/02 13:19:20;;;;;;;2.57;0.30;;;15.20;85.80;;;;;;5069695;28;21009;-73
2023/05/02 13:21:46;;;;;;;2.35;0.50;;;15.10;86.50;;;;;;5086718;28;20402;-74
2023/05/02 13:24:12;;;;;;;2.37;0.40;;;15.00;86.60;;;;;;5087603;28;20520;-74
2023/05/02 13:26:37;;;;;;;2.70;0.40;;;14.90;87.30;;;;;;5083558;28;20764;-74
2023/05/02 13:29:03;;;;;;;4.30;0.80;;;15.20;88.10;;;;;;5070888;28;20776;-74
2023/05/02 13:31:29;;;;;;;5.47;0.60;;;15.70;85.20;;;;;;5087160;28;20417;-74
2023/05/02 13:33:54;;;;;;;4.47;0.57;;;15.50;87.30;;;;;;5089687;28;20402;-74
2023/05/02 13:36:20;;;;;;;2.85;0.43;;;15.20;88.50;;;;;;5087609;28;20437;-74
2023/05/02 13:38:46;;;;;;;4.43;0.57;;;15.00;90.30;;;;;;5086601;28;20406;-74
2023/05/02 13:41:11;;;;;;;5.77;0.50;;;14.70;91.30;;;;;;5088791;28;20475;-74
2023/05/02 13:43:39;;;;;;;2.15;0.40;;;14.60;91.30;;;;;;5087783;28;20943;-74
2023/05/02 13:46:05;;;;;;;2.67;0.52;;;14.60;91.80;;;;;;5087505;28;20406;-74
2023/05/02 13:48:30;;;;;;;3.80;0.57;;;14.70;91.20;;;;;;5087170;28;20417;-74
2023/05/02 13:50:56;;;;;;;2.10;0.40;;;14.80;90.20;;;;;;5087122;28;20401;-74
2023/05/02 13:53:22;;;;;;;3.47;0.50;;;14.90;90.40;;;;;;5088329;28;20406;-74
2023/05/02 13:55:47;;;;;;;1.77;0.30;;;14.90;89.90;;;;;;5087887;28;20398;-74
2023/05/02 13:58:13;;;;;;;2.40;0.43;;;14.80;89.70;;;;;;5082371;28;20429;-74
2023/05/02 14:00:38;;;;;;;3.93;0.40;;;14.80;89.80;;;;;;5088480;28;20408;-74
2023/05/02 14:03:04;;;;;;;3.30;0.43;;;14.90;90.00;;;;;;5087895;28;20421;-74
2023/05/02 14:05:30;;;;;;;2.10;0.22;;;14.80;89.70;;;;;;5087857;28;20896;-74